ACA638 CYRQ-CYUL
Flight info
| Callsign | ACA638 |
|---|---|
| Flight time | 0h 24m |
| Altitude | 17000 |
| Route | PESAC/N0326F160 DCT MISOP DCT SILVI DCT OMBRE OMBRE2 |
| Aircraft | A20N/M-SDE2E3FGHIRWXY/LB1 |
Departure
| Time | 2026-05-05 22:01 |
|---|---|
| Airport | Trois-Rivières Airport (CYRQ) |
Arrival
| Time | 2026-05-05 22:26 |
|---|---|
| Airport | Montreal / Pierre Elliott Trudeau International Airport (CYUL) |
| Time | Latitude | Longitude | Altitude | Speed | Heading |
|---|---|---|---|---|---|
| 2026-05-05 21:19 | 46.36226 | -72.67510 | 216 ft | 0 kts | 109° |
| 2026-05-05 21:24 | 46.36226 | -72.67513 | 216 ft | 1 kts | 109° |
| 2026-05-05 21:25 | 46.36227 | -72.67519 | 216 ft | 0 kts | 123° |
| 2026-05-05 21:25 | 46.36229 | -72.67524 | 216 ft | 1 kts | 144° |
| 2026-05-05 21:25 | 46.36210 | -72.67523 | 216 ft | 8 kts | 173° |
| 2026-05-05 21:25 | 46.36132 | -72.67481 | 210 ft | 15 kts | 152° |
| 2026-05-05 21:26 | 46.36025 | -72.67393 | 211 ft | 19 kts | 143° |
| 2026-05-05 21:26 | 46.36012 | -72.67301 | 215 ft | 6 kts | 51° |
| 2026-05-05 21:26 | 46.36059 | -72.67244 | 218 ft | 13 kts | 34° |
| 2026-05-05 21:26 | 46.36068 | -72.67236 | 210 ft | 13 kts | 34° |
| 2026-05-05 21:59 | 46.36107 | -72.67198 | 216 ft | 16 kts | 28° |
| 2026-05-05 22:00 | 46.36187 | -72.67182 | 214 ft | 8 kts | 49° |
| 2026-05-05 22:00 | 46.36181 | -72.67160 | 215 ft | 1 kts | 130° |
| 2026-05-05 22:00 | 46.36177 | -72.67162 | 213 ft | 1 kts | 180° |
| 2026-05-05 22:00 | 46.36144 | -72.67179 | 210 ft | 11 kts | 206° |
| 2026-05-05 22:01 | 46.35949 | -72.67335 | 209 ft | 75 kts | 211° |
| 2026-05-05 22:01 | 46.35209 | -72.67996 | 262 ft | 164 kts | 212° |
| 2026-05-05 22:01 | 46.34072 | -72.68958 | 730 ft | 218 kts | 213° |
| 2026-05-05 22:01 | 46.32649 | -72.70314 | 1273 ft | 272 kts | 216° |
| 2026-05-05 22:02 | 46.30936 | -72.71956 | 1775 ft | 317 kts | 213° |
| 2026-05-05 22:02 | 46.28961 | -72.73086 | 2262 ft | 290 kts | 195° |
| 2026-05-05 22:02 | 46.27072 | -72.73246 | 2722 ft | 257 kts | 181° |
| 2026-05-05 22:02 | 46.25307 | -72.72665 | 3252 ft | 265 kts | 166° |
| 2026-05-05 22:03 | 46.23673 | -72.71337 | 4238 ft | 277 kts | 148° |
| 2026-05-05 22:03 | 46.22327 | -72.69261 | 5771 ft | 289 kts | 131° |
| 2026-05-05 22:03 | 46.21436 | -72.66566 | 7180 ft | 306 kts | 114° |
| 2026-05-05 22:03 | 46.20789 | -72.63580 | 8484 ft | 317 kts | 114° |
| 2026-05-05 22:04 | 46.20127 | -72.60492 | 9796 ft | 326 kts | 115° |
| 2026-05-05 22:04 | 46.19428 | -72.57280 | 10739 ft | 348 kts | 114° |
| 2026-05-05 22:04 | 46.18678 | -72.53874 | 11466 ft | 372 kts | 114° |
| 2026-05-05 22:04 | 46.17875 | -72.50231 | 12468 ft | 384 kts | 114° |
| 2026-05-05 22:05 | 46.17063 | -72.46526 | 13663 ft | 390 kts | 114° |
| 2026-05-05 22:05 | 46.16233 | -72.42757 | 14689 ft | 398 kts | 115° |
| 2026-05-05 22:05 | 46.15384 | -72.38925 | 15668 ft | 406 kts | 115° |
| 2026-05-05 22:05 | 46.14358 | -72.35148 | 16242 ft | 400 kts | 127° |
| 2026-05-05 22:06 | 46.12728 | -72.32011 | 16506 ft | 383 kts | 145° |
| 2026-05-05 22:06 | 46.10630 | -72.29832 | 16613 ft | 363 kts | 163° |
| 2026-05-05 22:06 | 46.08295 | -72.28785 | 16616 ft | 342 kts | 182° |
| 2026-05-05 22:06 | 46.06015 | -72.28933 | 16622 ft | 325 kts | 200° |
| 2026-05-05 22:07 | 46.03863 | -72.29852 | 16624 ft | 321 kts | 205° |
| 2026-05-05 22:07 | 46.01734 | -72.30831 | 16624 ft | 322 kts | 204° |
| 2026-05-05 22:07 | 45.99570 | -72.31715 | 16615 ft | 326 kts | 201° |
| 2026-05-05 22:07 | 45.97346 | -72.32506 | 16639 ft | 329 kts | 200° |
| 2026-05-05 22:08 | 45.95106 | -72.33215 | 16641 ft | 329 kts | 199° |
| 2026-05-05 22:08 | 45.92861 | -72.33888 | 16636 ft | 329 kts | 199° |
| 2026-05-05 22:08 | 45.90612 | -72.34552 | 16645 ft | 330 kts | 198° |
| 2026-05-05 22:08 | 45.88362 | -72.35216 | 16646 ft | 330 kts | 198° |
| 2026-05-05 22:09 | 45.86117 | -72.35879 | 16648 ft | 330 kts | 199° |
| 2026-05-05 22:09 | 45.83869 | -72.36546 | 16659 ft | 330 kts | 199° |
| 2026-05-05 22:09 | 45.81737 | -72.37499 | 16656 ft | 321 kts | 211° |
| 2026-05-05 22:09 | 45.79898 | -72.39255 | 16644 ft | 316 kts | 225° |
| 2026-05-05 22:10 | 45.78500 | -72.41653 | 16657 ft | 314 kts | 239° |
| 2026-05-05 22:10 | 45.77628 | -72.44518 | 16656 ft | 315 kts | 252° |
| 2026-05-05 22:10 | 45.77212 | -72.47606 | 16676 ft | 314 kts | 257° |
| 2026-05-05 22:10 | 45.76838 | -72.50656 | 16669 ft | 311 kts | 257° |
| 2026-05-05 22:11 | 45.76456 | -72.53721 | 16663 ft | 312 kts | 257° |
| 2026-05-05 22:11 | 45.76069 | -72.56780 | 16668 ft | 312 kts | 256° |
| 2026-05-05 22:11 | 45.75681 | -72.59831 | 16669 ft | 312 kts | 256° |
| 2026-05-05 22:11 | 45.75295 | -72.62850 | 16669 ft | 311 kts | 256° |
| 2026-05-05 22:12 | 45.74903 | -72.65902 | 16658 ft | 311 kts | 256° |
| 2026-05-05 22:12 | 45.74511 | -72.68955 | 16655 ft | 312 kts | 256° |
| 2026-05-05 22:12 | 45.74118 | -72.72007 | 16657 ft | 311 kts | 256° |
| 2026-05-05 22:12 | 45.73723 | -72.75061 | 16669 ft | 312 kts | 256° |
| 2026-05-05 22:13 | 45.73328 | -72.78116 | 16668 ft | 312 kts | 256° |
| 2026-05-05 22:13 | 45.72934 | -72.81154 | 16600 ft | 309 kts | 256° |
| 2026-05-05 22:13 | 45.72542 | -72.84173 | 16175 ft | 307 kts | 256° |
| 2026-05-05 22:13 | 45.72152 | -72.87166 | 15541 ft | 305 kts | 256° |
| 2026-05-05 22:14 | 45.71766 | -72.90121 | 14819 ft | 304 kts | 256° |
| 2026-05-05 22:14 | 45.71380 | -72.93069 | 14286 ft | 298 kts | 256° |
| 2026-05-05 22:14 | 45.71000 | -72.95967 | 13613 ft | 295 kts | 256° |
| 2026-05-05 22:14 | 45.70619 | -72.98855 | 12884 ft | 293 kts | 256° |
| 2026-05-05 22:15 | 45.70243 | -73.01709 | 12182 ft | 290 kts | 257° |
| 2026-05-05 22:15 | 45.69871 | -73.04527 | 11481 ft | 288 kts | 257° |
| 2026-05-05 22:15 | 45.69501 | -73.07329 | 10817 ft | 285 kts | 257° |
| 2026-05-05 22:15 | 45.69135 | -73.10093 | 10173 ft | 282 kts | 257° |
| 2026-05-05 22:16 | 45.68774 | -73.12815 | 9821 ft | 271 kts | 257° |
| 2026-05-05 22:16 | 45.68436 | -73.15378 | 9681 ft | 254 kts | 256° |
| 2026-05-05 22:16 | 45.68118 | -73.17787 | 9530 ft | 239 kts | 256° |
| 2026-05-05 22:16 | 45.67810 | -73.20099 | 9103 ft | 235 kts | 256° |
| 2026-05-05 22:17 | 45.67502 | -73.22386 | 8631 ft | 233 kts | 256° |
| 2026-05-05 22:17 | 45.67197 | -73.24650 | 8198 ft | 230 kts | 257° |
| 2026-05-05 22:17 | 45.66894 | -73.26894 | 7698 ft | 230 kts | 257° |
| 2026-05-05 22:17 | 45.66590 | -73.29146 | 7217 ft | 230 kts | 257° |
| 2026-05-05 22:18 | 45.66288 | -73.31388 | 6757 ft | 230 kts | 257° |
| 2026-05-05 22:18 | 45.65987 | -73.33627 | 6319 ft | 229 kts | 257° |
| 2026-05-05 22:18 | 45.65684 | -73.35855 | 5865 ft | 229 kts | 258° |
| 2026-05-05 22:18 | 45.65377 | -73.38095 | 5368 ft | 229 kts | 258° |
| 2026-05-05 22:19 | 45.65075 | -73.40341 | 4865 ft | 231 kts | 258° |
| 2026-05-05 22:19 | 45.64773 | -73.42578 | 4350 ft | 233 kts | 258° |
| 2026-05-05 22:19 | 45.64471 | -73.44835 | 4092 ft | 231 kts | 258° |
| 2026-05-05 22:19 | 45.64139 | -73.47113 | 4025 ft | 233 kts | 252° |
| 2026-05-05 22:20 | 45.63420 | -73.49173 | 3782 ft | 231 kts | 240° |
| 2026-05-05 22:20 | 45.62551 | -73.51109 | 3358 ft | 232 kts | 237° |
| 2026-05-05 22:20 | 45.61640 | -73.52992 | 3103 ft | 232 kts | 235° |
| 2026-05-05 22:20 | 45.60673 | -73.54882 | 3010 ft | 236 kts | 233° |
| 2026-05-05 22:21 | 45.59685 | -73.56715 | 2883 ft | 229 kts | 232° |
| 2026-05-05 22:21 | 45.58709 | -73.58446 | 2780 ft | 218 kts | 231° |
| 2026-05-05 22:21 | 45.57762 | -73.60064 | 2682 ft | 206 kts | 231° |
| 2026-05-05 22:21 | 45.56881 | -73.61525 | 2576 ft | 184 kts | 229° |
| 2026-05-05 22:22 | 45.56115 | -73.62772 | 2447 ft | 152 kts | 229° |
| 2026-05-05 22:22 | 45.55460 | -73.63780 | 2288 ft | 128 kts | 224° |
| 2026-05-05 22:22 | 45.54854 | -73.64651 | 2021 ft | 121 kts | 229° |
| 2026-05-05 22:22 | 45.54311 | -73.65507 | 1799 ft | 112 kts | 229° |
| 2026-05-05 22:23 | 45.53761 | -73.66353 | 1651 ft | 116 kts | 227° |
| 2026-05-05 22:23 | 45.53193 | -73.67188 | 1569 ft | 121 kts | 226° |
| 2026-05-05 22:23 | 45.52565 | -73.68043 | 1517 ft | 141 kts | 219° |
| 2026-05-05 22:23 | 45.51832 | -73.68857 | 1239 ft | 119 kts | 224° |
| 2026-05-05 22:24 | 45.51268 | -73.69598 | 1021 ft | 104 kts | 225° |
| 2026-05-05 22:24 | 45.50643 | -73.70440 | 995 ft | 141 kts | 225° |
| 2026-05-05 22:24 | 45.49904 | -73.71398 | 924 ft | 133 kts | 227° |
| 2026-05-05 22:24 | 45.49289 | -73.72256 | 598 ft | 117 kts | 231° |
| 2026-05-05 22:25 | 45.48710 | -73.73062 | 300 ft | 114 kts | 232° |
| 2026-05-05 22:25 | 45.48178 | -73.73786 | 165 ft | 97 kts | 232° |
| 2026-05-05 22:25 | 45.47722 | -73.74378 | 132 ft | 80 kts | 233° |
| 2026-05-05 22:25 | 45.47376 | -73.74860 | 116 ft | 53 kts | 224° |
| 2026-05-05 22:26 | 45.47165 | -73.75133 | 115 ft | 37 kts | 220° |
| 2026-05-05 22:26 | 45.46979 | -73.75365 | 112 ft | 34 kts | 221° |
| 2026-05-05 22:26 | 45.46803 | -73.75549 | 115 ft | 30 kts | 199° |
| 2026-05-05 22:26 | 45.46613 | -73.75627 | 115 ft | 26 kts | 192° |
| 2026-05-05 22:27 | 45.46550 | -73.75648 | 114 ft | 2 kts | 193° |
| 2026-05-05 22:27 | 45.46538 | -73.75652 | 115 ft | 4 kts | 192° |
| 2026-05-05 22:27 | 45.46484 | -73.75669 | 115 ft | 11 kts | 192° |
| 2026-05-05 22:27 | 45.46424 | -73.75688 | 114 ft | 15 kts | 193° |
| 2026-05-05 22:28 | 45.46313 | -73.75698 | 114 ft | 11 kts | 145° |
| 2026-05-05 22:28 | 45.46297 | -73.75594 | 116 ft | 14 kts | 89° |
| 2026-05-05 22:28 | 45.46306 | -73.75422 | 116 ft | 21 kts | 86° |
| 2026-05-05 22:28 | 45.46315 | -73.75189 | 114 ft | 20 kts | 90° |
| 2026-05-05 22:29 | 45.46311 | -73.75049 | 113 ft | 13 kts | 107° |
| 2026-05-05 22:29 | 45.46236 | -73.75000 | 113 ft | 10 kts | 172° |
| 2026-05-05 22:29 | 45.46230 | -73.74999 | 114 ft | 0 kts | 173° |
| 2026-05-05 22:29 | 45.46229 | -73.74999 | 114 ft | 2 kts | 173° |
| 2026-05-05 22:30 | 45.46215 | -73.74997 | 114 ft | 0 kts | 174° |
| 2026-05-05 22:31 | 45.46207 | -73.74996 | 114 ft | 5 kts | 175° |
| 2026-05-05 22:31 | 45.46163 | -73.74968 | 115 ft | 7 kts | 118° |
| 2026-05-05 22:31 | 45.46137 | -73.74924 | 115 ft | 6 kts | 158° |
| 2026-05-05 22:32 | 45.46096 | -73.74919 | 113 ft | 7 kts | 177° |
| 2026-05-05 22:32 | 45.46069 | -73.74917 | 114 ft | 1 kts | 178° |
| 2026-05-05 22:32 | 45.46067 | -73.74917 | 114 ft | 0 kts | 178° |